Fairfield, New York
Current Conditions -  °F | °C
As of 11:44 AM on Saturday 25 Oct 2014 (Local Time) from KRME Reporting Station
Overcast Overcast  
Wind Chill: 53°   Ceiling: 4000
Heat Index: 53°   Visibility: 9mi
Dew Point: 47°   Wind: 5mph
Humidity: 80%   Direction: 120°ESE
Pressure: 29.76"   Gusts: NA
Location:  43.1378°N, 74.9232°W
Report Text: KRME 251544Z 12004KT 9SM SCT021 OVC040 12/08 A2976 RMK AO2 T01170083
Loading
Personal Weather Stations






























Interactive Weather Map
Tropical Storm Tracking
New forecast layout! Learn more

10-Day Weather Forecast

Advertisements
Track Severe Weather on mobile